Redwood City, CA (94065)

10:45 AM PDT on July 30, 2016 (GMT -0700)
Redwood Shores | | Change Station

Elev 5 ft 37.53 °N, 122.25 °W | Updated 30 seconds ago

Scattered Clouds
Scattered Clouds
68.0 °F
Feels Like 68.0 °F
N
5.8
Wind Variable Wind from South
Gusts 7.4 mph

Today
High -- | Low -- °F
--% Chance of Precip.
Yesterday
High -- | Low -- °F
Precip. -- in
Pressure 29.85 in
Visibility 8.0 miles
Clouds Scattered Clouds 1000 ft
Dew Point 58 °F
Humidity 69%
Rainfall 0.00 in
Snow Depth Not available.
6:11 AM 8:18 PM
Waning Crescent, 12% visible
SPECI KSQL 301710Z 03004KT 8SM SCT010 18/14 A2985
Pressure 29.85 in
Visibility 8.0 miles
Clouds Scattered Clouds 1000 ft
Dew Point 58 °F
Humidity 69%
Rainfall 0.00 in
Snow Depth Not available.
6:11 AM 8:18 PM
Waning Crescent, 12% visible
SPECI KSQL 301710Z 03004KT 8SM SCT010 18/14 A2985

10-Day Weather Forecast

Almanac

Astronomy

Jul. 30, 2016 Rise Set
Actual Time
Civil Twilight
Nautical Twilight
Astronomical Twilight
Moon
Length of Visible Light
Length of Day
Tomorrow will be .
, % of the Moon is Illuminated

Today's Extremes

State Highs State Lows

Community

WunderPhotos

Upload Photos

1,928,600 photos uploaded!

WunderBlog® & News

Nearby

Air Quality

  Air Quality AQ Index Pollutant
Not available.

Snow Depth

Station Depth Elevation

Earthquake Activity

City Distance Mag. Time & Date
Minimum magnitude displayed is 2.5.

Coastal Water Temperatures

Place Temperature

Stations

Nearby Weather Stations

Station Location Temp. Windchill Dew Point Humidity Wind Precip. Elev Updated Type
                   

Watches & Warnings

There are currently no watches in effect.